sensor_id;sensor_type;location;lat;lon;timestamp;P1;durP1;ratioP1;P2;durP2;ratioP2
3847;SDS011;1939;48.720;9.166;2024-01-15T00:01:28;20.30;;;7.80;;
3847;SDS011;1939;48.720;9.166;2024-01-15T00:03:54;14.73;;;6.13;;
3847;SDS011;1939;48.720;9.166;2024-01-15T00:06:19;15.23;;;6.97;;
3847;SDS011;1939;48.720;9.166;2024-01-15T00:08:44;16.10;;;6.80;;
3847;SDS011;1939;48.720;9.166;2024-01-15T00:11:09;11.67;;;5.00;;
3847;SDS011;1939;48.720;9.166;2024-01-15T00:13:35;22.20;;;7.77;;
3847;SDS011;1939;48.720;9.166;2024-01-15T00:16:00;14.87;;;6.40;;
3847;SDS011;1939;48.720;9.166;2024-01-15T00:18:25;16.97;;;6.33;;
3847;SDS011;1939;48.720;9.166;2024-01-15T00:20:50;14.90;;;5.73;;
3847;SDS011;1939;48.720;9.166;2024-01-15T00:23:16;14.37;;;6.90;;
3847;SDS011;1939;48.720;9.166;2024-01-15T00:25:41;20.80;;;8.63;;
3847;SDS011;1939;48.720;9.166;2024-01-15T00:28:06;14.47;;;5.80;;
3847;SDS011;1939;48.720;9.166;2024-01-15T00:30:31;20.20;;;6.93;;
3847;SDS011;1939;48.720;9.166;2024-01-15T00:32:57;19.50;;;7.70;;
3847;SDS011;1939;48.720;9.166;2024-01-15T00:35:22;24.27;;;8.77;;
3847;SDS011;1939;48.720;9.166;2024-01-15T00:37:47;16.57;;;8.30;;
3847;SDS011;1939;48.720;9.166;2024-01-15T00:40:12;18.90;;;6.83;;
3847;SDS011;1939;48.720;9.166;2024-01-15T00:42:38;22.20;;;7.57;;
3847;SDS011;1939;48.720;9.166;2024-01-15T00:45:03;15.30;;;6.20;;
3847;SDS011;1939;48.720;9.166;2024-01-15T00:47:30;16.60;;;6.60;;
3847;SDS011;1939;48.720;9.166;2024-01-15T00:49:55;21.70;;;7.77;;
3847;SDS011;1939;48.720;9.166;2024-01-15T00:52:20;18.80;;;6.07;;
3847;SDS011;1939;48.720;9.166;2024-01-15T00:54:45;29.90;;;8.37;;
3847;SDS011;1939;48.720;9.166;2024-01-15T00:57:11;15.30;;;6.30;;
3847;SDS011;1939;48.720;9.166;2024-01-15T00:59:36;18.87;;;6.50;;
3847;SDS011;1939;48.720;9.166;2024-01-15T01:02:01;16.90;;;6.63;;
3847;SDS011;1939;48.720;9.166;2024-01-15T01:04:27;17.53;;;6.47;;
3847;SDS011;1939;48.720;9.166;2024-01-15T01:06:52;19.33;;;6.97;;
3847;SDS011;1939;48.720;9.166;2024-01-15T01:09:17;18.10;;;7.30;;
3847;SDS011;1939;48.720;9.166;2024-01-15T01:11:43;13.40;;;6.10;;
3847;SDS011;1939;48.720;9.166;2024-01-15T01:14:08;14.80;;;6.43;;
3847;SDS011;1939;48.720;9.166;2024-01-15T01:16:33;18.80;;;7.17;;
3847;SDS011;1939;48.720;9.166;2024-01-15T01:19:04;21.73;;;6.97;;
3847;SDS011;1939;48.720;9.166;2024-01-15T01:21:29;22.20;;;5.97;;
3847;SDS011;1939;48.720;9.166;2024-01-15T01:23:54;17.67;;;6.30;;
3847;SDS011;1939;48.720;9.166;2024-01-15T01:26:19;16.20;;;5.93;;
3847;SDS011;1939;48.720;9.166;2024-01-15T01:28:44;20.60;;;6.03;;
3847;SDS011;1939;48.720;9.166;2024-01-15T01:31:10;18.93;;;6.27;;
3847;SDS011;1939;48.720;9.166;2024-01-15T01:33:35;18.63;;;7.70;;
3847;SDS011;1939;48.720;9.166;2024-01-15T01:36:00;17.70;;;7.13;;
3847;SDS011;1939;48.720;9.166;2024-01-15T01:38:25;16.27;;;6.87;;
3847;SDS011;1939;48.720;9.166;2024-01-15T01:40:51;16.30;;;5.93;;
3847;SDS011;1939;48.720;9.166;2024-01-15T01:43:16;18.73;;;6.20;;
3847;SDS011;1939;48.720;9.166;2024-01-15T01:45:41;17.13;;;6.67;;
3847;SDS011;1939;48.720;9.166;2024-01-15T01:48:06;20.03;;;7.43;;
3847;SDS011;1939;48.720;9.166;2024-01-15T01:50:32;15.53;;;6.40;;
3847;SDS011;1939;48.720;9.166;2024-01-15T01:52:57;15.20;;;6.10;;
3847;SDS011;1939;48.720;9.166;2024-01-15T01:55:23;16.93;;;7.67;;
3847;SDS011;1939;48.720;9.166;2024-01-15T01:57:49;23.67;;;6.20;;
3847;SDS011;1939;48.720;9.166;2024-01-15T02:00:15;17.47;;;6.40;;
3847;SDS011;1939;48.720;9.166;2024-01-15T02:02:40;20.07;;;5.73;;
3847;SDS011;1939;48.720;9.166;2024-01-15T02:05:06;19.50;;;6.83;;
3847;SDS011;1939;48.720;9.166;2024-01-15T02:07:31;17.40;;;6.40;;
3847;SDS011;1939;48.720;9.166;2024-01-15T02:09:56;16.90;;;7.53;;
3847;SDS011;1939;48.720;9.166;2024-01-15T02:12:22;28.17;;;7.23;;
3847;SDS011;1939;48.720;9.166;2024-01-15T02:14:47;15.47;;;5.80;;
3847;SDS011;1939;48.720;9.166;2024-01-15T02:17:12;15.13;;;6.80;;
3847;SDS011;1939;48.720;9.166;2024-01-15T02:19:38;13.13;;;5.60;;
3847;SDS011;1939;48.720;9.166;2024-01-15T02:22:14;13.00;;;6.10;;
3847;SDS011;1939;48.720;9.166;2024-01-15T02:24:39;20.73;;;6.60;;
3847;SDS011;1939;48.720;9.166;2024-01-15T02:27:04;21.07;;;6.37;;
3847;SDS011;1939;48.720;9.166;2024-01-15T02:29:30;11.27;;;4.53;;
3847;SDS011;1939;48.720;9.166;2024-01-15T02:31:55;21.47;;;6.60;;
3847;SDS011;1939;48.720;9.166;2024-01-15T02:34:20;12.93;;;6.50;;
3847;SDS011;1939;48.720;9.166;2024-01-15T02:36:45;21.43;;;7.20;;
3847;SDS011;1939;48.720;9.166;2024-01-15T02:39:11;13.40;;;6.43;;
3847;SDS011;1939;48.720;9.166;2024-01-15T02:41:36;17.73;;;6.20;;
3847;SDS011;1939;48.720;9.166;2024-01-15T02:44:01;12.97;;;5.80;;
3847;SDS011;1939;48.720;9.166;2024-01-15T02:46:26;13.83;;;5.67;;
3847;SDS011;1939;48.720;9.166;2024-01-15T02:48:51;23.47;;;6.80;;
3847;SDS011;1939;48.720;9.166;2024-01-15T02:51:17;14.70;;;6.30;;
3847;SDS011;1939;48.720;9.166;2024-01-15T02:53:42;14.33;;;5.90;;
3847;SDS011;1939;48.720;9.166;2024-01-15T02:56:07;18.47;;;7.90;;
3847;SDS011;1939;48.720;9.166;2024-01-15T02:58:32;15.90;;;6.80;;
3847;SDS011;1939;48.720;9.166;2024-01-15T03:00:58;23.43;;;6.83;;
3847;SDS011;1939;48.720;9.166;2024-01-15T03:03:23;12.23;;;5.70;;
3847;SDS011;1939;48.720;9.166;2024-01-15T03:05:48;14.60;;;6.27;;
3847;SDS011;1939;48.720;9.166;2024-01-15T03:08:13;14.97;;;5.60;;
3847;SDS011;1939;48.720;9.166;2024-01-15T03:10:39;17.73;;;6.73;;
3847;SDS011;1939;48.720;9.166;2024-01-15T03:13:04;21.63;;;6.13;;
3847;SDS011;1939;48.720;9.166;2024-01-15T03:15:29;18.00;;;6.00;;
3847;SDS011;1939;48.720;9.166;2024-01-15T03:17:54;18.00;;;6.50;;
3847;SDS011;1939;48.720;9.166;2024-01-15T03:20:19;22.80;;;7.73;;
3847;SDS011;1939;48.720;9.166;2024-01-15T03:22:45;16.13;;;5.73;;
3847;SDS011;1939;48.720;9.166;2024-01-15T03:25:10;21.33;;;6.70;;
3847;SDS011;1939;48.720;9.166;2024-01-15T03:27:35;15.57;;;5.90;;
3847;SDS011;1939;48.720;9.166;2024-01-15T03:30:00;15.30;;;6.50;;
3847;SDS011;1939;48.720;9.166;2024-01-15T03:32:27;13.70;;;6.33;;
3847;SDS011;1939;48.720;9.166;2024-01-15T03:34:52;15.33;;;5.40;;
3847;SDS011;1939;48.720;9.166;2024-01-15T03:37:17;19.53;;;6.67;;
3847;SDS011;1939;48.720;9.166;2024-01-15T03:39:42;19.30;;;9.30;;
3847;SDS011;1939;48.720;9.166;2024-01-15T03:42:08;15.53;;;6.70;;
3847;SDS011;1939;48.720;9.166;2024-01-15T03:44:33;14.27;;;5.53;;
3847;SDS011;1939;48.720;9.166;2024-01-15T03:46:58;18.60;;;7.53;;
3847;SDS011;1939;48.720;9.166;2024-01-15T03:49:23;15.17;;;7.50;;
3847;SDS011;1939;48.720;9.166;2024-01-15T03:51:49;14.90;;;5.50;;
3847;SDS011;1939;48.720;9.166;2024-01-15T03:54:14;19.33;;;5.47;;
3847;SDS011;1939;48.720;9.166;2024-01-15T03:56:39;15.20;;;6.77;;
3847;SDS011;1939;48.720;9.166;2024-01-15T03:59:04;15.67;;;6.20;;
3847;SDS011;1939;48.720;9.166;2024-01-15T04:01:30;17.30;;;6.50;;
3847;SDS011;1939;48.720;9.166;2024-01-15T04:03:55;16.20;;;5.77;;
3847;SDS011;1939;48.720;9.166;2024-01-15T04:06:20;14.07;;;5.83;;
3847;SDS011;1939;48.720;9.166;2024-01-15T04:08:45;23.20;;;7.60;;
3847;SDS011;1939;48.720;9.166;2024-01-15T04:11:11;19.10;;;7.00;;
3847;SDS011;1939;48.720;9.166;2024-01-15T04:13:36;16.83;;;6.43;;
3847;SDS011;1939;48.720;9.166;2024-01-15T04:16:01;17.43;;;7.10;;
3847;SDS011;1939;48.720;9.166;2024-01-15T04:18:26;19.03;;;6.77;;
3847;SDS011;1939;48.720;9.166;2024-01-15T04:20:52;11.63;;;5.57;;
3847;SDS011;1939;48.720;9.166;2024-01-15T04:23:17;8.87;;;4.77;;
3847;SDS011;1939;48.720;9.166;2024-01-15T04:25:42;9.60;;;5.50;;
3847;SDS011;1939;48.720;9.166;2024-01-15T04:28:10;13.07;;;6.17;;
3847;SDS011;1939;48.720;9.166;2024-01-15T04:30:36;13.20;;;5.00;;
3847;SDS011;1939;48.720;9.166;2024-01-15T04:33:01;23.83;;;6.50;;
3847;SDS011;1939;48.720;9.166;2024-01-15T04:35:26;16.47;;;6.20;;
3847;SDS011;1939;48.720;9.166;2024-01-15T04:37:51;16.03;;;6.83;;
3847;SDS011;1939;48.720;9.166;2024-01-15T04:40:17;15.10;;;7.03;;
3847;SDS011;1939;48.720;9.166;2024-01-15T04:42:42;13.70;;;5.93;;
3847;SDS011;1939;48.720;9.166;2024-01-15T04:45:07;14.00;;;5.20;;
3847;SDS011;1939;48.720;9.166;2024-01-15T04:47:32;14.90;;;5.10;;
3847;SDS011;1939;48.720;9.166;2024-01-15T04:49:58;17.93;;;5.30;;
3847;SDS011;1939;48.720;9.166;2024-01-15T04:52:23;14.93;;;6.40;;
3847;SDS011;1939;48.720;9.166;2024-01-15T04:54:48;13.73;;;5.80;;
3847;SDS011;1939;48.720;9.166;2024-01-15T04:57:13;18.27;;;5.83;;
3847;SDS011;1939;48.720;9.166;2024-01-15T04:59:39;18.83;;;6.10;;
3847;SDS011;1939;48.720;9.166;2024-01-15T05:02:04;12.93;;;5.87;;
3847;SDS011;1939;48.720;9.166;2024-01-15T05:04:30;17.20;;;5.30;;
3847;SDS011;1939;48.720;9.166;2024-01-15T05:06:55;20.90;;;7.00;;
3847;SDS011;1939;48.720;9.166;2024-01-15T05:09:20;13.90;;;5.77;;
3847;SDS011;1939;48.720;9.166;2024-01-15T05:11:45;12.87;;;5.77;;
3847;SDS011;1939;48.720;9.166;2024-01-15T05:14:11;11.93;;;5.70;;
3847;SDS011;1939;48.720;9.166;2024-01-15T05:16:39;12.57;;;5.07;;
3847;SDS011;1939;48.720;9.166;2024-01-15T05:19:05;20.30;;;6.53;;
3847;SDS011;1939;48.720;9.166;2024-01-15T05:21:31;15.57;;;6.70;;
3847;SDS011;1939;48.720;9.166;2024-01-15T05:23:56;15.40;;;5.87;;
3847;SDS011;1939;48.720;9.166;2024-01-15T05:26:21;18.33;;;5.90;;
3847;SDS011;1939;48.720;9.166;2024-01-15T05:28:46;11.30;;;5.67;;
3847;SDS011;1939;48.720;9.166;2024-01-15T05:31:12;20.10;;;6.37;;
3847;SDS011;1939;48.720;9.166;2024-01-15T05:33:37;14.83;;;5.40;;
3847;SDS011;1939;48.720;9.166;2024-01-15T05:36:02;13.87;;;6.50;;
3847;SDS011;1939;48.720;9.166;2024-01-15T05:38:27;12.27;;;4.30;;
3847;SDS011;1939;48.720;9.166;2024-01-15T05:40:53;20.17;;;6.27;;
3847;SDS011;1939;48.720;9.166;2024-01-15T05:43:18;17.30;;;5.50;;
3847;SDS011;1939;48.720;9.166;2024-01-15T05:45:43;17.60;;;6.07;;
3847;SDS011;1939;48.720;9.166;2024-01-15T05:48:09;27.13;;;8.07;;
3847;SDS011;1939;48.720;9.166;2024-01-15T05:50:35;20.53;;;6.47;;
3847;SDS011;1939;48.720;9.166;2024-01-15T05:53:00;24.67;;;5.93;;
3847;SDS011;1939;48.720;9.166;2024-01-15T05:55:25;17.77;;;7.70;;
3847;SDS011;1939;48.720;9.166;2024-01-15T05:57:50;12.70;;;6.10;;
3847;SDS011;1939;48.720;9.166;2024-01-15T06:00:15;19.10;;;8.13;;
3847;SDS011;1939;48.720;9.166;2024-01-15T06:02:41;17.63;;;6.37;;
3847;SDS011;1939;48.720;9.166;2024-01-15T06:05:06;17.87;;;6.43;;
3847;SDS011;1939;48.720;9.166;2024-01-15T06:07:34;23.53;;;8.10;;
3847;SDS011;1939;48.720;9.166;2024-01-15T06:09:59;19.40;;;7.53;;
3847;SDS011;1939;48.720;9.166;2024-01-15T06:12:24;17.80;;;6.97;;
3847;SDS011;1939;48.720;9.166;2024-01-15T06:14:50;16.93;;;6.57;;
3847;SDS011;1939;48.720;9.166;2024-01-15T06:17:15;17.90;;;7.17;;
3847;SDS011;1939;48.720;9.166;2024-01-15T06:19:40;19.67;;;6.93;;
3847;SDS011;1939;48.720;9.166;2024-01-15T06:22:05;21.80;;;8.23;;
3847;SDS011;1939;48.720;9.166;2024-01-15T06:24:31;17.10;;;7.90;;
3847;SDS011;1939;48.720;9.166;2024-01-15T06:26:58;18.43;;;7.63;;
3847;SDS011;1939;48.720;9.166;2024-01-15T06:29:25;15.73;;;6.03;;
3847;SDS011;1939;48.720;9.166;2024-01-15T06:31:50;23.93;;;7.00;;
3847;SDS011;1939;48.720;9.166;2024-01-15T06:34:15;17.50;;;7.70;;
3847;SDS011;1939;48.720;9.166;2024-01-15T06:36:40;16.47;;;6.60;;
3847;SDS011;1939;48.720;9.166;2024-01-15T06:39:06;20.23;;;7.83;;
3847;SDS011;1939;48.720;9.166;2024-01-15T06:41:31;17.00;;;7.60;;
3847;SDS011;1939;48.720;9.166;2024-01-15T06:43:56;26.00;;;9.03;;
3847;SDS011;1939;48.720;9.166;2024-01-15T06:46:21;13.43;;;6.50;;
3847;SDS011;1939;48.720;9.166;2024-01-15T06:48:47;20.73;;;7.50;;
3847;SDS011;1939;48.720;9.166;2024-01-15T06:51:12;18.20;;;6.77;;
3847;SDS011;1939;48.720;9.166;2024-01-15T06:53:37;18.63;;;7.67;;
3847;SDS011;1939;48.720;9.166;2024-01-15T06:56:02;15.40;;;5.87;;
3847;SDS011;1939;48.720;9.166;2024-01-15T06:58:28;14.43;;;6.37;;
3847;SDS011;1939;48.720;9.166;2024-01-15T07:00:53;13.83;;;5.70;;
3847;SDS011;1939;48.720;9.166;2024-01-15T07:03:18;14.27;;;5.70;;
3847;SDS011;1939;48.720;9.166;2024-01-15T07:05:43;12.97;;;7.33;;
3847;SDS011;1939;48.720;9.166;2024-01-15T07:08:09;14.00;;;7.03;;
3847;SDS011;1939;48.720;9.166;2024-01-15T07:10:34;14.70;;;6.60;;
3847;SDS011;1939;48.720;9.166;2024-01-15T07:12:59;14.17;;;6.03;;
3847;SDS011;1939;48.720;9.166;2024-01-15T07:15:24;13.43;;;6.17;;
3847;SDS011;1939;48.720;9.166;2024-01-15T07:17:50;14.67;;;5.80;;
3847;SDS011;1939;48.720;9.166;2024-01-15T07:20:15;14.47;;;7.80;;
3847;SDS011;1939;48.720;9.166;2024-01-15T07:22:40;13.27;;;6.30;;
3847;SDS011;1939;48.720;9.166;2024-01-15T07:25:06;14.23;;;6.03;;
3847;SDS011;1939;48.720;9.166;2024-01-15T07:27:31;15.77;;;6.67;;
3847;SDS011;1939;48.720;9.166;2024-01-15T07:29:57;11.83;;;5.47;;
3847;SDS011;1939;48.720;9.166;2024-01-15T07:32:22;17.07;;;7.73;;
3847;SDS011;1939;48.720;9.166;2024-01-15T07:34:47;11.47;;;5.53;;
3847;SDS011;1939;48.720;9.166;2024-01-15T07:37:13;13.50;;;6.60;;
3847;SDS011;1939;48.720;9.166;2024-01-15T07:39:38;10.77;;;5.87;;
3847;SDS011;1939;48.720;9.166;2024-01-15T07:42:03;14.97;;;7.00;;
3847;SDS011;1939;48.720;9.166;2024-01-15T07:44:28;22.10;;;6.20;;
3847;SDS011;1939;48.720;9.166;2024-01-15T07:46:54;16.87;;;7.40;;
3847;SDS011;1939;48.720;9.166;2024-01-15T07:49:19;12.40;;;6.37;;
3847;SDS011;1939;48.720;9.166;2024-01-15T07:51:44;15.07;;;6.13;;
3847;SDS011;1939;48.720;9.166;2024-01-15T07:54:09;19.57;;;6.70;;
3847;SDS011;1939;48.720;9.166;2024-01-15T07:56:52;14.57;;;5.83;;
3847;SDS011;1939;48.720;9.166;2024-01-15T07:59:18;13.33;;;6.90;;
3847;SDS011;1939;48.720;9.166;2024-01-15T08:01:43;12.30;;;5.93;;
3847;SDS011;1939;48.720;9.166;2024-01-15T08:04:08;11.50;;;5.20;;
3847;SDS011;1939;48.720;9.166;2024-01-15T08:06:34;11.67;;;5.50;;
3847;SDS011;1939;48.720;9.166;2024-01-15T08:08:59;10.50;;;5.30;;
3847;SDS011;1939;48.720;9.166;2024-01-15T08:11:24;13.33;;;5.60;;
3847;SDS011;1939;48.720;9.166;2024-01-15T08:13:49;20.13;;;6.60;;
3847;SDS011;1939;48.720;9.166;2024-01-15T08:16:15;11.30;;;6.07;;
3847;SDS011;1939;48.720;9.166;2024-01-15T08:18:41;10.03;;;5.90;;
3847;SDS011;1939;48.720;9.166;2024-01-15T08:21:06;15.63;;;6.10;;
3847;SDS011;1939;48.720;9.166;2024-01-15T08:23:32;14.90;;;5.27;;
3847;SDS011;1939;48.720;9.166;2024-01-15T08:25:59;12.00;;;6.17;;
3847;SDS011;1939;48.720;9.166;2024-01-15T08:28:24;9.70;;;5.40;;
3847;SDS011;1939;48.720;9.166;2024-01-15T08:30:49;13.43;;;5.43;;
3847;SDS011;1939;48.720;9.166;2024-01-15T08:33:14;6.60;;;4.23;;
3847;SDS011;1939;48.720;9.166;2024-01-15T08:35:40;10.23;;;5.17;;
3847;SDS011;1939;48.720;9.166;2024-01-15T08:38:05;15.83;;;4.70;;
3847;SDS011;1939;48.720;9.166;2024-01-15T08:40:30;8.67;;;4.50;;
3847;SDS011;1939;48.720;9.166;2024-01-15T08:42:56;13.43;;;4.60;;
3847;SDS011;1939;48.720;9.166;2024-01-15T08:45:21;17.60;;;4.27;;
3847;SDS011;1939;48.720;9.166;2024-01-15T08:47:46;9.10;;;4.27;;
3847;SDS011;1939;48.720;9.166;2024-01-15T08:50:12;9.80;;;5.47;;
3847;SDS011;1939;48.720;9.166;2024-01-15T08:52:37;17.07;;;5.67;;
3847;SDS011;1939;48.720;9.166;2024-01-15T08:55:02;9.17;;;3.53;;
3847;SDS011;1939;48.720;9.166;2024-01-15T08:57:29;11.57;;;4.33;;
3847;SDS011;1939;48.720;9.166;2024-01-15T08:59:54;11.83;;;3.80;;
3847;SDS011;1939;48.720;9.166;2024-01-15T09:02:19;17.37;;;4.80;;
3847;SDS011;1939;48.720;9.166;2024-01-15T09:04:45;7.23;;;3.60;;
3847;SDS011;1939;48.720;9.166;2024-01-15T09:07:11;4.90;;;2.20;;
3847;SDS011;1939;48.720;9.166;2024-01-15T09:09:36;8.60;;;3.77;;
3847;SDS011;1939;48.720;9.166;2024-01-15T09:12:01;5.90;;;3.50;;
3847;SDS011;1939;48.720;9.166;2024-01-15T09:14:27;10.00;;;3.87;;
3847;SDS011;1939;48.720;9.166;2024-01-15T09:16:54;7.70;;;4.10;;
3847;SDS011;1939;48.720;9.166;2024-01-15T09:19:19;8.43;;;4.50;;
3847;SDS011;1939;48.720;9.166;2024-01-15T09:21:44;15.63;;;3.03;;
3847;SDS011;1939;48.720;9.166;2024-01-15T09:24:10;6.53;;;3.20;;
3847;SDS011;1939;48.720;9.166;2024-01-15T09:26:35;3.37;;;1.80;;
3847;SDS011;1939;48.720;9.166;2024-01-15T09:29:00;7.70;;;3.40;;
3847;SDS011;1939;48.720;9.166;2024-01-15T09:31:26;7.27;;;2.67;;
3847;SDS011;1939;48.720;9.166;2024-01-15T09:33:52;9.83;;;2.83;;
3847;SDS011;1939;48.720;9.166;2024-01-15T09:36:21;16.50;;;3.17;;
3847;SDS011;1939;48.720;9.166;2024-01-15T09:38:46;6.63;;;2.57;;
3847;SDS011;1939;48.720;9.166;2024-01-15T09:41:11;8.53;;;3.00;;
3847;SDS011;1939;48.720;9.166;2024-01-15T09:43:36;4.87;;;2.57;;
3847;SDS011;1939;48.720;9.166;2024-01-15T09:46:03;7.57;;;2.80;;
3847;SDS011;1939;48.720;9.166;2024-01-15T09:48:28;6.03;;;3.27;;
3847;SDS011;1939;48.720;9.166;2024-01-15T09:50:54;9.97;;;3.17;;
3847;SDS011;1939;48.720;9.166;2024-01-15T09:53:19;6.67;;;2.57;;
3847;SDS011;1939;48.720;9.166;2024-01-15T09:55:46;10.33;;;3.90;;
3847;SDS011;1939;48.720;9.166;2024-01-15T09:58:11;5.03;;;2.47;;
3847;SDS011;1939;48.720;9.166;2024-01-15T10:00:37;6.30;;;3.00;;
3847;SDS011;1939;48.720;9.166;2024-01-15T10:03:04;8.80;;;2.97;;
3847;SDS011;1939;48.720;9.166;2024-01-15T10:05:29;7.20;;;3.47;;
3847;SDS011;1939;48.720;9.166;2024-01-15T10:07:55;12.87;;;4.90;;
3847;SDS011;1939;48.720;9.166;2024-01-15T10:10:21;9.20;;;3.17;;
3847;SDS011;1939;48.720;9.166;2024-01-15T10:12:47;8.70;;;3.37;;
3847;SDS011;1939;48.720;9.166;2024-01-15T10:15:12;5.83;;;2.50;;
3847;SDS011;1939;48.720;9.166;2024-01-15T10:17:38;5.20;;;3.37;;
3847;SDS011;1939;48.720;9.166;2024-01-15T10:20:07;5.77;;;2.67;;
3847;SDS011;1939;48.720;9.166;2024-01-15T10:22:32;7.80;;;3.77;;
3847;SDS011;1939;48.720;9.166;2024-01-15T10:24:57;8.17;;;3.37;;
3847;SDS011;1939;48.720;9.166;2024-01-15T10:27:23;13.83;;;3.27;;
3847;SDS011;1939;48.720;9.166;2024-01-15T10:29:49;8.67;;;3.40;;
3847;SDS011;1939;48.720;9.166;2024-01-15T10:32:14;10.63;;;3.63;;
3847;SDS011;1939;48.720;9.166;2024-01-15T10:34:39;10.83;;;3.93;;
3847;SDS011;1939;48.720;9.166;2024-01-15T10:37:06;9.23;;;3.60;;
3847;SDS011;1939;48.720;9.166;2024-01-15T10:39:32;9.13;;;4.07;;
3847;SDS011;1939;48.720;9.166;2024-01-15T10:41:57;8.03;;;3.57;;
3847;SDS011;1939;48.720;9.166;2024-01-15T10:44:22;11.10;;;4.13;;
3847;SDS011;1939;48.720;9.166;2024-01-15T10:46:47;7.77;;;3.70;;
3847;SDS011;1939;48.720;9.166;2024-01-15T10:49:13;5.93;;;3.27;;
3847;SDS011;1939;48.720;9.166;2024-01-15T10:51:38;7.17;;;4.43;;
3847;SDS011;1939;48.720;9.166;2024-01-15T10:54:03;8.93;;;4.87;;
3847;SDS011;1939;48.720;9.166;2024-01-15T10:56:30;10.93;;;3.70;;
3847;SDS011;1939;48.720;9.166;2024-01-15T10:58:56;6.97;;;4.20;;
3847;SDS011;1939;48.720;9.166;2024-01-15T11:01:22;7.27;;;3.73;;
3847;SDS011;1939;48.720;9.166;2024-01-15T11:03:47;6.30;;;3.90;;
3847;SDS011;1939;48.720;9.166;2024-01-15T11:06:16;4.40;;;2.63;;
3847;SDS011;1939;48.720;9.166;2024-01-15T11:08:42;5.43;;;3.13;;
3847;SDS011;1939;48.720;9.166;2024-01-15T11:11:07;11.97;;;3.60;;
3847;SDS011;1939;48.720;9.166;2024-01-15T11:15:58;8.10;;;3.70;;
3847;SDS011;1939;48.720;9.166;2024-01-15T11:18:26;5.27;;;3.40;;
3847;SDS011;1939;48.720;9.166;2024-01-15T11:23:41;9.80;;;3.50;;
3847;SDS011;1939;48.720;9.166;2024-01-15T11:26:26;6.80;;;3.53;;
3847;SDS011;1939;48.720;9.166;2024-01-15T11:28:52;12.20;;;4.27;;
3847;SDS011;1939;48.720;9.166;2024-01-15T11:31:17;17.70;;;3.37;;
3847;SDS011;1939;48.720;9.166;2024-01-15T11:33:49;19.80;;;4.57;;
3847;SDS011;1939;48.720;9.166;2024-01-15T11:36:15;8.73;;;3.00;;
3847;SDS011;1939;48.720;9.166;2024-01-15T11:38:40;8.33;;;3.90;;
3847;SDS011;1939;48.720;9.166;2024-01-15T11:41:14;7.47;;;3.80;;
3847;SDS011;1939;48.720;9.166;2024-01-15T11:43:42;5.03;;;2.90;;
3847;SDS011;1939;48.720;9.166;2024-01-15T11:46:11;10.03;;;3.90;;
3847;SDS011;1939;48.720;9.166;2024-01-15T11:48:43;7.90;;;3.17;;
3847;SDS011;1939;48.720;9.166;2024-01-15T11:51:10;6.70;;;3.33;;
3847;SDS011;1939;48.720;9.166;2024-01-15T11:53:36;11.20;;;4.23;;
3847;SDS011;1939;48.720;9.166;2024-01-15T11:56:06;10.20;;;4.20;;
3847;SDS011;1939;48.720;9.166;2024-01-15T11:58:36;6.67;;;3.53;;
3847;SDS011;1939;48.720;9.166;2024-01-15T12:01:02;10.10;;;3.70;;
3847;SDS011;1939;48.720;9.166;2024-01-15T12:03:27;6.30;;;3.50;;
3847;SDS011;1939;48.720;9.166;2024-01-15T12:05:52;8.83;;;3.80;;
3847;SDS011;1939;48.720;9.166;2024-01-15T12:08:22;8.40;;;3.07;;
3847;SDS011;1939;48.720;9.166;2024-01-15T12:10:47;6.17;;;3.33;;
3847;SDS011;1939;48.720;9.166;2024-01-15T12:13:12;9.50;;;4.23;;
3847;SDS011;1939;48.720;9.166;2024-01-15T12:15:38;6.57;;;3.00;;
3847;SDS011;1939;48.720;9.166;2024-01-15T12:18:06;8.40;;;4.00;;
3847;SDS011;1939;48.720;9.166;2024-01-15T12:20:32;7.47;;;3.50;;
3847;SDS011;1939;48.720;9.166;2024-01-15T12:22:58;15.03;;;4.30;;
3847;SDS011;1939;48.720;9.166;2024-01-15T12:25:26;8.57;;;3.90;;
3847;SDS011;1939;48.720;9.166;2024-01-15T12:27:52;8.23;;;3.50;;
3847;SDS011;1939;48.720;9.166;2024-01-15T12:30:17;8.10;;;3.40;;
3847;SDS011;1939;48.720;9.166;2024-01-15T12:32:43;8.40;;;4.40;;
3847;SDS011;1939;48.720;9.166;2024-01-15T12:35:12;6.60;;;3.90;;
3847;SDS011;1939;48.720;9.166;2024-01-15T12:37:40;12.93;;;5.67;;
3847;SDS011;1939;48.720;9.166;2024-01-15T12:40:06;10.53;;;4.03;;
3847;SDS011;1939;48.720;9.166;2024-01-15T12:42:37;5.43;;;4.13;;
3847;SDS011;1939;48.720;9.166;2024-01-15T12:45:03;11.80;;;5.03;;
3847;SDS011;1939;48.720;9.166;2024-01-15T12:47:30;10.90;;;4.00;;
3847;SDS011;1939;48.720;9.166;2024-01-15T12:49:56;8.50;;;4.30;;
3847;SDS011;1939;48.720;9.166;2024-01-15T12:52:22;12.87;;;4.50;;
3847;SDS011;1939;48.720;9.166;2024-01-15T12:54:48;10.93;;;5.50;;
3847;SDS011;1939;48.720;9.166;2024-01-15T12:57:13;7.27;;;4.17;;
3847;SDS011;1939;48.720;9.166;2024-01-15T12:59:38;8.43;;;3.63;;
3847;SDS011;1939;48.720;9.166;2024-01-15T13:02:04;15.80;;;5.30;;
3847;SDS011;1939;48.720;9.166;2024-01-15T13:04:29;11.60;;;4.33;;
3847;SDS011;1939;48.720;9.166;2024-01-15T13:06:54;8.93;;;4.23;;
3847;SDS011;1939;48.720;9.166;2024-01-15T13:09:20;13.80;;;4.40;;
3847;SDS011;1939;48.720;9.166;2024-01-15T13:11:45;7.80;;;3.20;;
3847;SDS011;1939;48.720;9.166;2024-01-15T13:14:10;12.23;;;3.07;;
3847;SDS011;1939;48.720;9.166;2024-01-15T13:16:36;6.33;;;4.27;;
3847;SDS011;1939;48.720;9.166;2024-01-15T13:19:01;9.47;;;3.80;;
3847;SDS011;1939;48.720;9.166;2024-01-15T13:21:28;5.93;;;3.70;;
3847;SDS011;1939;48.720;9.166;2024-01-15T13:23:53;11.73;;;4.10;;
3847;SDS011;1939;48.720;9.166;2024-01-15T13:26:19;11.00;;;4.27;;
3847;SDS011;1939;48.720;9.166;2024-01-15T13:28:45;12.43;;;3.90;;
3847;SDS011;1939;48.720;9.166;2024-01-15T13:31:10;14.03;;;4.50;;
3847;SDS011;1939;48.720;9.166;2024-01-15T13:33:35;7.93;;;3.13;;
3847;SDS011;1939;48.720;9.166;2024-01-15T13:36:01;7.70;;;4.23;;
3847;SDS011;1939;48.720;9.166;2024-01-15T13:38:27;8.97;;;3.90;;
3847;SDS011;1939;48.720;9.166;2024-01-15T13:40:52;10.70;;;4.17;;
3847;SDS011;1939;48.720;9.166;2024-01-15T13:43:20;9.90;;;3.90;;
3847;SDS011;1939;48.720;9.166;2024-01-15T13:45:45;9.80;;;4.00;;
3847;SDS011;1939;48.720;9.166;2024-01-15T13:48:11;7.50;;;4.17;;
3847;SDS011;1939;48.720;9.166;2024-01-15T13:50:36;7.80;;;4.30;;
3847;SDS011;1939;48.720;9.166;2024-01-15T13:53:02;10.60;;;4.97;;
3847;SDS011;1939;48.720;9.166;2024-01-15T13:55:28;6.00;;;3.20;;
3847;SDS011;1939;48.720;9.166;2024-01-15T13:57:54;6.50;;;3.10;;
3847;SDS011;1939;48.720;9.166;2024-01-15T14:00:19;18.03;;;6.50;;
3847;SDS011;1939;48.720;9.166;2024-01-15T14:02:45;9.13;;;4.50;;
3847;SDS011;1939;48.720;9.166;2024-01-15T14:05:10;8.97;;;4.60;;
3847;SDS011;1939;48.720;9.166;2024-01-15T14:07:37;11.93;;;4.87;;
3847;SDS011;1939;48.720;9.166;2024-01-15T14:10:03;7.20;;;3.33;;
3847;SDS011;1939;48.720;9.166;2024-01-15T14:12:29;9.50;;;3.43;;
3847;SDS011;1939;48.720;9.166;2024-01-15T14:14:54;10.60;;;5.13;;
3847;SDS011;1939;48.720;9.166;2024-01-15T14:17:19;14.60;;;3.37;;
3847;SDS011;1939;48.720;9.166;2024-01-15T14:19:44;5.33;;;2.97;;
3847;SDS011;1939;48.720;9.166;2024-01-15T14:22:10;11.40;;;4.60;;
3847;SDS011;1939;48.720;9.166;2024-01-15T14:24:35;11.13;;;4.20;;
3847;SDS011;1939;48.720;9.166;2024-01-15T14:27:00;8.30;;;4.10;;
3847;SDS011;1939;48.720;9.166;2024-01-15T14:29:25;3.80;;;2.60;;
3847;SDS011;1939;48.720;9.166;2024-01-15T14:31:52;4.13;;;3.57;;
3847;SDS011;1939;48.720;9.166;2024-01-15T14:34:17;8.80;;;3.33;;
3847;SDS011;1939;48.720;9.166;2024-01-15T14:36:43;6.10;;;3.07;;
3847;SDS011;1939;48.720;9.166;2024-01-15T14:39:08;6.47;;;2.67;;
3847;SDS011;1939;48.720;9.166;2024-01-15T14:41:34;4.20;;;3.60;;
3847;SDS011;1939;48.720;9.166;2024-01-15T14:44:00;5.90;;;3.47;;
3847;SDS011;1939;48.720;9.166;2024-01-15T14:46:25;6.47;;;3.33;;
3847;SDS011;1939;48.720;9.166;2024-01-15T14:48:52;6.67;;;3.17;;
3847;SDS011;1939;48.720;9.166;2024-01-15T14:51:17;6.53;;;2.80;;
3847;SDS011;1939;48.720;9.166;2024-01-15T14:53:43;8.97;;;3.03;;
3847;SDS011;1939;48.720;9.166;2024-01-15T14:56:09;6.40;;;4.10;;
3847;SDS011;1939;48.720;9.166;2024-01-15T14:58:34;7.90;;;3.73;;
3847;SDS011;1939;48.720;9.166;2024-01-15T15:00:59;6.10;;;3.00;;